Terminal Aerodrome Forecast
Issued by NWS Sioux Falls, SD

Home | Current Version | Previous Version | Graphics & Text | Print | Product List | Glossary Off
Versions: 1 2 3 4 5 6 7 8 9 10 11 12 13

000
FTUS43 KFSD 051721
TAFFSD
TAF
KFSD 051721Z 0518/0618 19009KT P6SM SKC
     FM060600 VRB04KT P6SM FEW120
     FM061500 27007KT P6SM SCT200=

USA.gov is the U.S. government's official web portal to all federal, state and local government web resources and services.